sensor_id;sensor_type;location;lat;lon;timestamp;pressure;altitude;pressure_sealevel;temperature;humidity
80401;BME280;69727;53.132;8.230;2023-04-28T00:02:12;101843.22;;;3.95;81.77
80401;BME280;69727;53.132;8.230;2023-04-28T00:04:38;101843.13;;;3.92;82.28
80401;BME280;69727;53.132;8.230;2023-04-28T00:07:03;101842.34;;;3.96;81.94
80401;BME280;69727;53.132;8.230;2023-04-28T00:09:28;101824.66;;;3.86;81.85
80401;BME280;69727;53.132;8.230;2023-04-28T00:11:54;101838.84;;;3.96;82.01
80401;BME280;69727;53.132;8.230;2023-04-28T00:14:19;101832.72;;;3.94;81.83
80401;BME280;69727;53.132;8.230;2023-04-28T00:16:45;101832.50;;;3.86;82.09
80401;BME280;69727;53.132;8.230;2023-04-28T00:19:10;101837.75;;;3.86;82.23
80401;BME280;69727;53.132;8.230;2023-04-28T00:21:35;101831.66;;;3.86;82.18
80401;BME280;69727;53.132;8.230;2023-04-28T00:24:01;101843.00;;;3.86;82.39
80401;BME280;69727;53.132;8.230;2023-04-28T00:26:26;101829.97;;;3.89;82.74
80401;BME280;69727;53.132;8.230;2023-04-28T00:28:51;101822.78;;;3.81;82.30
80401;BME280;69727;53.132;8.230;2023-04-28T00:31:17;101821.91;;;3.80;82.48
80401;BME280;69727;53.132;8.230;2023-04-28T00:33:43;101820.78;;;3.70;82.49
80401;BME280;69727;53.132;8.230;2023-04-28T00:36:09;101819.09;;;3.72;82.67
80401;BME280;69727;53.132;8.230;2023-04-28T00:38:35;101812.03;;;3.70;82.63
80401;BME280;69727;53.132;8.230;2023-04-28T00:41:01;101807.78;;;3.73;82.55
80401;BME280;69727;53.132;8.230;2023-04-28T00:43:26;101786.66;;;3.66;82.42
80401;BME280;69727;53.132;8.230;2023-04-28T00:45:52;101801.53;;;3.68;82.98
80401;BME280;69727;53.132;8.230;2023-04-28T00:48:18;101791.00;;;3.65;82.89
80401;BME280;69727;53.132;8.230;2023-04-28T00:50:44;101797.28;;;3.72;82.57
80401;BME280;69727;53.132;8.230;2023-04-28T00:53:10;101772.69;;;3.65;82.80
80401;BME280;69727;53.132;8.230;2023-04-28T00:55:36;101783.25;;;3.70;82.77
80401;BME280;69727;53.132;8.230;2023-04-28T00:58:02;101776.31;;;3.70;82.81
80401;BME280;69727;53.132;8.230;2023-04-28T01:00:29;101769.25;;;3.68;82.30
80401;BME280;69727;53.132;8.230;2023-04-28T01:02:56;101770.94;;;3.64;82.24
80401;BME280;69727;53.132;8.230;2023-04-28T01:05:23;101780.59;;;3.68;82.55
80401;BME280;69727;53.132;8.230;2023-04-28T01:07:49;101762.91;;;3.56;83.10
80401;BME280;69727;53.132;8.230;2023-04-28T01:10:14;101766.38;;;3.57;83.14
80401;BME280;69727;53.132;8.230;2023-04-28T01:12:40;101762.94;;;3.58;82.82
80401;BME280;69727;53.132;8.230;2023-04-28T01:15:06;101763.81;;;3.58;82.93
80401;BME280;69727;53.132;8.230;2023-04-28T01:17:34;101769.06;;;3.60;82.76
80401;BME280;69727;53.132;8.230;2023-04-28T01:19:59;101762.06;;;3.57;82.58
80401;BME280;69727;53.132;8.230;2023-04-28T01:22:25;101754.31;;;3.62;82.40
80401;BME280;69727;53.132;8.230;2023-04-28T01:24:50;101742.00;;;3.58;82.90
80401;BME280;69727;53.132;8.230;2023-04-28T01:27:15;101732.50;;;3.61;82.13
80401;BME280;69727;53.132;8.230;2023-04-28T01:29:41;101742.19;;;3.66;82.13
80401;BME280;69727;53.132;8.230;2023-04-28T01:32:06;101726.25;;;3.55;82.49
80401;BME280;69727;53.132;8.230;2023-04-28T01:34:32;101746.41;;;3.59;82.09
80401;BME280;69727;53.132;8.230;2023-04-28T01:36:57;101742.88;;;3.58;82.49
80401;BME280;69727;53.132;8.230;2023-04-28T01:39:22;101735.03;;;3.58;82.66
80401;BME280;69727;53.132;8.230;2023-04-28T01:41:48;101730.75;;;3.60;82.63
80401;BME280;69727;53.132;8.230;2023-04-28T01:44:13;101713.88;;;3.49;82.40
80401;BME280;69727;53.132;8.230;2023-04-28T01:46:39;101703.31;;;3.45;82.38
80401;BME280;69727;53.132;8.230;2023-04-28T01:49:04;101721.66;;;3.46;82.52
80401;BME280;69727;53.132;8.230;2023-04-28T01:51:30;101704.13;;;3.42;82.39
80401;BME280;69727;53.132;8.230;2023-04-28T01:53:55;101719.19;;;3.52;82.62
80401;BME280;69727;53.132;8.230;2023-04-28T01:56:21;101692.53;;;3.32;82.19
80401;BME280;69727;53.132;8.230;2023-04-28T01:58:46;101704.28;;;3.48;82.32
80401;BME280;69727;53.132;8.230;2023-04-28T02:01:12;101697.13;;;3.41;82.48
80401;BME280;69727;53.132;8.230;2023-04-28T02:03:37;101697.16;;;3.42;82.06
80401;BME280;69727;53.132;8.230;2023-04-28T02:06:02;101707.78;;;3.49;81.95
80401;BME280;69727;53.132;8.230;2023-04-28T02:08:28;101697.22;;;3.44;82.08
80401;BME280;69727;53.132;8.230;2023-04-28T02:10:54;101694.59;;;3.44;82.40
80401;BME280;69727;53.132;8.230;2023-04-28T02:13:21;101689.09;;;3.33;82.10
80401;BME280;69727;53.132;8.230;2023-04-28T02:15:47;101682.09;;;3.32;82.43
80401;BME280;69727;53.132;8.230;2023-04-28T02:18:12;101682.88;;;3.28;82.81
80401;BME280;69727;53.132;8.230;2023-04-28T02:20:37;101698.72;;;3.34;82.61
80401;BME280;69727;53.132;8.230;2023-04-28T02:23:03;101696.88;;;3.30;82.91
80401;BME280;69727;53.132;8.230;2023-04-28T02:25:28;101671.28;;;3.17;83.01
80401;BME280;69727;53.132;8.230;2023-04-28T02:27:54;101672.22;;;3.20;83.11
80401;BME280;69727;53.132;8.230;2023-04-28T02:30:19;101670.69;;;3.29;82.98
80401;BME280;69727;53.132;8.230;2023-04-28T02:32:44;101670.72;;;3.30;83.13
80401;BME280;69727;53.132;8.230;2023-04-28T02:35:10;101669.00;;;3.32;82.76
80401;BME280;69727;53.132;8.230;2023-04-28T02:37:35;101652.28;;;3.24;82.83
80401;BME280;69727;53.132;8.230;2023-04-28T02:40:01;101641.59;;;3.15;82.65
80401;BME280;69727;53.132;8.230;2023-04-28T02:42:26;101638.06;;;3.13;82.60
80401;BME280;69727;53.132;8.230;2023-04-28T02:44:51;101651.34;;;3.22;82.91
80401;BME280;69727;53.132;8.230;2023-04-28T02:47:17;101623.38;;;3.18;82.74
80401;BME280;69727;53.132;8.230;2023-04-28T02:49:42;101631.31;;;3.22;83.01
80401;BME280;69727;53.132;8.230;2023-04-28T02:52:08;101613.94;;;3.23;82.15
80401;BME280;69727;53.132;8.230;2023-04-28T02:54:33;101634.13;;;3.30;82.64
80401;BME280;69727;53.132;8.230;2023-04-28T02:57:00;101625.28;;;3.25;82.78
80401;BME280;69727;53.132;8.230;2023-04-28T02:59:27;101622.69;;;3.25;82.48
80401;BME280;69727;53.132;8.230;2023-04-28T03:01:53;101624.38;;;3.23;83.17
80401;BME280;69727;53.132;8.230;2023-04-28T03:04:18;101620.06;;;3.25;82.67
80401;BME280;69727;53.132;8.230;2023-04-28T03:06:44;101603.50;;;3.24;82.42
80401;BME280;69727;53.132;8.230;2023-04-28T03:09:09;101592.25;;;3.29;82.58
80401;BME280;69727;53.132;8.230;2023-04-28T03:11:35;101593.16;;;3.31;82.59
80401;BME280;69727;53.132;8.230;2023-04-28T03:14:01;101580.88;;;3.27;82.58
80401;BME280;69727;53.132;8.230;2023-04-28T03:16:26;101586.25;;;3.33;82.46
80401;BME280;69727;53.132;8.230;2023-04-28T03:18:51;101560.81;;;3.25;82.06
80401;BME280;69727;53.132;8.230;2023-04-28T03:21:17;101564.34;;;3.28;81.89
80401;BME280;69727;53.132;8.230;2023-04-28T03:23:42;101572.31;;;3.34;81.87
80401;BME280;69727;53.132;8.230;2023-04-28T03:26:08;101584.81;;;3.47;81.53
80401;BME280;69727;53.132;8.230;2023-04-28T03:28:33;101578.72;;;3.47;80.47
80401;BME280;69727;53.132;8.230;2023-04-28T03:30:58;101576.09;;;3.47;81.29
80401;BME280;69727;53.132;8.230;2023-04-28T03:33:24;101566.50;;;3.47;80.57
80401;BME280;69727;53.132;8.230;2023-04-28T03:35:49;101569.13;;;3.47;80.98
80401;BME280;69727;53.132;8.230;2023-04-28T03:38:15;101573.56;;;3.50;80.87
80401;BME280;69727;53.132;8.230;2023-04-28T03:40:40;101556.94;;;3.48;80.80
80401;BME280;69727;53.132;8.230;2023-04-28T03:43:06;101534.03;;;3.36;80.77
80401;BME280;69727;53.132;8.230;2023-04-28T03:45:31;101542.78;;;3.38;80.99
80401;BME280;69727;53.132;8.230;2023-04-28T03:47:56;101544.56;;;3.39;80.74
80401;BME280;69727;53.132;8.230;2023-04-28T03:50:22;101526.19;;;3.36;80.87
80401;BME280;69727;53.132;8.230;2023-04-28T03:52:47;101531.63;;;3.45;80.40
80401;BME280;69727;53.132;8.230;2023-04-28T03:55:13;101516.00;;;3.48;80.31
80401;BME280;69727;53.132;8.230;2023-04-28T03:57:38;101530.78;;;3.48;80.15
80401;BME280;69727;53.132;8.230;2023-04-28T04:00:04;101522.00;;;3.44;80.44
80401;BME280;69727;53.132;8.230;2023-04-28T04:02:29;101506.25;;;3.42;80.49
80401;BME280;69727;53.132;8.230;2023-04-28T04:04:55;101515.06;;;3.46;80.19
80401;BME280;69727;53.132;8.230;2023-04-28T04:07:21;101513.28;;;3.43;79.94
80401;BME280;69727;53.132;8.230;2023-04-28T04:09:47;101507.34;;;3.52;79.60
80401;BME280;69727;53.132;8.230;2023-04-28T04:12:13;101509.19;;;3.56;79.87
80401;BME280;69727;53.132;8.230;2023-04-28T04:14:38;101488.81;;;3.41;80.29
80401;BME280;69727;53.132;8.230;2023-04-28T04:17:04;101477.50;;;3.42;79.54
80401;BME280;69727;53.132;8.230;2023-04-28T04:19:29;101483.81;;;3.54;80.11
80401;BME280;69727;53.132;8.230;2023-04-28T04:21:54;101485.66;;;3.58;79.35
80401;BME280;69727;53.132;8.230;2023-04-28T04:24:20;101473.47;;;3.58;79.45
80401;BME280;69727;53.132;8.230;2023-04-28T04:26:46;101493.63;;;3.64;79.06
80401;BME280;69727;53.132;8.230;2023-04-28T04:29:11;101496.22;;;3.63;79.08
80401;BME280;69727;53.132;8.230;2023-04-28T04:31:36;101475.28;;;3.63;78.95
80401;BME280;69727;53.132;8.230;2023-04-28T04:34:02;101484.06;;;3.66;78.96
80401;BME280;69727;53.132;8.230;2023-04-28T04:36:27;101472.69;;;3.63;78.71
80401;BME280;69727;53.132;8.230;2023-04-28T04:38:52;101463.94;;;3.60;78.66
80401;BME280;69727;53.132;8.230;2023-04-28T04:41:18;101476.22;;;3.66;78.76
80401;BME280;69727;53.132;8.230;2023-04-28T04:43:47;101463.09;;;3.63;78.34
80401;BME280;69727;53.132;8.230;2023-04-28T04:46:12;101473.69;;;3.71;79.12
80401;BME280;69727;53.132;8.230;2023-04-28T04:48:38;101463.19;;;3.68;78.61
80401;BME280;69727;53.132;8.230;2023-04-28T04:51:03;101466.06;;;3.82;78.10
80401;BME280;69727;53.132;8.230;2023-04-28T04:53:29;101472.25;;;3.87;77.96
80401;BME280;69727;53.132;8.230;2023-04-28T04:55:54;101448.50;;;3.76;77.25
80401;BME280;69727;53.132;8.230;2023-04-28T04:58:19;101460.84;;;3.83;77.59
80401;BME280;69727;53.132;8.230;2023-04-28T05:00:45;101477.63;;;3.94;77.09
80401;BME280;69727;53.132;8.230;2023-04-28T05:03:10;101461.97;;;3.96;76.97
80401;BME280;69727;53.132;8.230;2023-04-28T05:05:36;101462.81;;;3.96;76.74
80401;BME280;69727;53.132;8.230;2023-04-28T05:08:02;101475.31;;;4.11;76.38
80401;BME280;69727;53.132;8.230;2023-04-28T05:10:27;101478.88;;;4.15;76.61
80401;BME280;69727;53.132;8.230;2023-04-28T05:12:53;101452.78;;;4.20;75.94
80401;BME280;69727;53.132;8.230;2023-04-28T05:15:18;101452.84;;;4.24;75.80
80401;BME280;69727;53.132;8.230;2023-04-28T05:17:44;101456.47;;;4.32;75.32
80401;BME280;69727;53.132;8.230;2023-04-28T05:20:09;101462.66;;;4.36;75.26
80401;BME280;69727;53.132;8.230;2023-04-28T05:22:35;101457.56;;;4.44;75.12
80401;BME280;69727;53.132;8.230;2023-04-28T05:25:00;101451.56;;;4.54;75.52
80401;BME280;69727;53.132;8.230;2023-04-28T05:27:26;101452.59;;;4.64;75.58
80401;BME280;69727;53.132;8.230;2023-04-28T05:29:51;101450.13;;;4.75;74.53
80401;BME280;69727;53.132;8.230;2023-04-28T05:32:17;101438.94;;;4.85;73.47
80401;BME280;69727;53.132;8.230;2023-04-28T05:34:42;101453.13;;;5.01;73.64
80401;BME280;69727;53.132;8.230;2023-04-28T05:37:08;101448.78;;;5.03;73.47
80401;BME280;69727;53.132;8.230;2023-04-28T05:39:33;101451.56;;;5.15;73.24
80401;BME280;69727;53.132;8.230;2023-04-28T05:41:58;101453.47;;;5.26;72.04
80401;BME280;69727;53.132;8.230;2023-04-28T05:44:24;101455.19;;;5.22;72.01
80401;BME280;69727;53.132;8.230;2023-04-28T05:46:49;101446.38;;;5.20;71.89
80401;BME280;69727;53.132;8.230;2023-04-28T05:49:15;101457.88;;;5.30;71.76
80401;BME280;69727;53.132;8.230;2023-04-28T05:51:41;101456.22;;;5.35;71.42
80401;BME280;69727;53.132;8.230;2023-04-28T05:54:06;101449.19;;;5.34;71.09
80401;BME280;69727;53.132;8.230;2023-04-28T05:56:32;101443.16;;;5.39;70.99
80401;BME280;69727;53.132;8.230;2023-04-28T05:58:57;101445.00;;;5.50;71.70
80401;BME280;69727;53.132;8.230;2023-04-28T06:01:24;101444.16;;;5.52;71.74
80401;BME280;69727;53.132;8.230;2023-04-28T06:03:50;101428.38;;;5.48;71.69
80401;BME280;69727;53.132;8.230;2023-04-28T06:06:17;101436.53;;;5.74;70.50
80401;BME280;69727;53.132;8.230;2023-04-28T06:08:42;101433.06;;;5.80;71.04
80401;BME280;69727;53.132;8.230;2023-04-28T06:11:08;101423.53;;;5.86;70.70
80401;BME280;69727;53.132;8.230;2023-04-28T06:13:33;101413.06;;;5.88;70.44
80401;BME280;69727;53.132;8.230;2023-04-28T06:15:58;101416.63;;;5.96;70.21
80401;BME280;69727;53.132;8.230;2023-04-28T06:18:24;101414.06;;;5.99;69.96
80401;BME280;69727;53.132;8.230;2023-04-28T06:20:49;101415.84;;;6.05;68.99
80401;BME280;69727;53.132;8.230;2023-04-28T06:23:15;101399.19;;;6.01;69.21
80401;BME280;69727;53.132;8.230;2023-04-28T06:25:40;101405.41;;;6.12;69.48
80401;BME280;69727;53.132;8.230;2023-04-28T06:28:06;101396.69;;;6.15;69.41
80401;BME280;69727;53.132;8.230;2023-04-28T06:30:33;101406.41;;;6.27;68.57
80401;BME280;69727;53.132;8.230;2023-04-28T06:32:58;101395.94;;;6.35;67.81
80401;BME280;69727;53.132;8.230;2023-04-28T06:35:24;101404.84;;;6.51;67.63
80401;BME280;69727;53.132;8.230;2023-04-28T06:37:49;101392.50;;;6.40;68.52
80401;BME280;69727;53.132;8.230;2023-04-28T06:40:15;101396.94;;;6.49;67.94
80401;BME280;69727;53.132;8.230;2023-04-28T06:42:41;101401.41;;;6.64;67.72
80401;BME280;69727;53.132;8.230;2023-04-28T06:45:07;101396.19;;;6.70;66.92
80401;BME280;69727;53.132;8.230;2023-04-28T06:47:32;101385.72;;;6.75;67.32
80401;BME280;69727;53.132;8.230;2023-04-28T06:49:58;101400.66;;;6.83;66.76
80401;BME280;69727;53.132;8.230;2023-04-28T06:52:23;101400.69;;;6.87;66.91
80401;BME280;69727;53.132;8.230;2023-04-28T06:54:48;101407.72;;;6.95;66.96
80401;BME280;69727;53.132;8.230;2023-04-28T06:57:14;101394.59;;;7.03;66.81
80401;BME280;69727;53.132;8.230;2023-04-28T06:59:39;101399.06;;;7.15;66.78
80401;BME280;69727;53.132;8.230;2023-04-28T07:02:08;101397.34;;;7.28;65.91
80401;BME280;69727;53.132;8.230;2023-04-28T07:04:33;101385.94;;;7.35;64.85
80401;BME280;69727;53.132;8.230;2023-04-28T07:06:59;101384.25;;;7.46;66.17
80401;BME280;69727;53.132;8.230;2023-04-28T07:09:24;101385.13;;;7.53;65.79
80401;BME280;69727;53.132;8.230;2023-04-28T07:11:50;101372.84;;;7.63;64.83
80401;BME280;69727;53.132;8.230;2023-04-28T07:14:15;101373.75;;;7.69;64.42
80401;BME280;69727;53.132;8.230;2023-04-28T07:16:40;101370.25;;;7.72;64.12
80401;BME280;69727;53.132;8.230;2023-04-28T07:19:06;101365.00;;;7.76;64.31
80401;BME280;69727;53.132;8.230;2023-04-28T07:21:31;101368.50;;;7.91;63.91
80401;BME280;69727;53.132;8.230;2023-04-28T07:23:58;101361.47;;;8.04;63.07
80401;BME280;69727;53.132;8.230;2023-04-28T07:26:24;101368.50;;;8.12;63.49
80401;BME280;69727;53.132;8.230;2023-04-28T07:28:49;101377.28;;;8.32;63.09
80401;BME280;69727;53.132;8.230;2023-04-28T07:31:15;101375.50;;;8.43;63.42
80401;BME280;69727;53.132;8.230;2023-04-28T07:33:41;101358.84;;;8.44;62.42
80401;BME280;69727;53.132;8.230;2023-04-28T07:36:06;101367.56;;;8.68;62.21
80401;BME280;69727;53.132;8.230;2023-04-28T07:38:35;101351.75;;;8.72;60.92
80401;BME280;69727;53.132;8.230;2023-04-28T07:41:01;101358.75;;;8.87;59.18
80401;BME280;69727;53.132;8.230;2023-04-28T07:43:27;101359.59;;;8.92;59.02
80401;BME280;69727;53.132;8.230;2023-04-28T07:45:53;101357.81;;;8.97;58.14
80401;BME280;69727;53.132;8.230;2023-04-28T07:48:18;101370.94;;;9.13;56.74
80401;BME280;69727;53.132;8.230;2023-04-28T07:50:44;101371.81;;;9.12;56.00
80401;BME280;69727;53.132;8.230;2023-04-28T07:53:09;101354.25;;;9.06;56.53
80401;BME280;69727;53.132;8.230;2023-04-28T07:55:35;101355.09;;;9.14;55.41
80401;BME280;69727;53.132;8.230;2023-04-28T07:58:00;101346.28;;;9.17;56.18
80401;BME280;69727;53.132;8.230;2023-04-28T08:00:26;101345.38;;;9.21;55.29
80401;BME280;69727;53.132;8.230;2023-04-28T08:02:51;101335.66;;;9.25;54.96
80401;BME280;69727;53.132;8.230;2023-04-28T08:05:17;101353.22;;;9.38;55.47
80401;BME280;69727;53.132;8.230;2023-04-28T08:07:42;101338.22;;;9.43;55.39
80401;BME280;69727;53.132;8.230;2023-04-28T08:10:11;101347.81;;;9.55;55.48
80401;BME280;69727;53.132;8.230;2023-04-28T08:12:37;101341.59;;;9.61;54.88
80401;BME280;69727;53.132;8.230;2023-04-28T08:15:03;101330.13;;;9.69;54.47
80401;BME280;69727;53.132;8.230;2023-04-28T08:17:29;101326.56;;;9.73;54.08
80401;BME280;69727;53.132;8.230;2023-04-28T08:19:54;101323.00;;;9.78;53.23
80401;BME280;69727;53.132;8.230;2023-04-28T08:22:19;101323.94;;;9.73;54.11
80401;BME280;69727;53.132;8.230;2023-04-28T08:24:45;101343.19;;;9.88;54.74
80401;BME280;69727;53.132;8.230;2023-04-28T08:27:10;101350.09;;;10.03;53.66
80401;BME280;69727;53.132;8.230;2023-04-28T08:29:36;101328.97;;;10.01;53.77
80401;BME280;69727;53.132;8.230;2023-04-28T08:32:02;101334.97;;;10.20;53.75
80401;BME280;69727;53.132;8.230;2023-04-28T08:34:28;101332.22;;;10.28;53.89
80401;BME280;69727;53.132;8.230;2023-04-28T08:36:54;101333.06;;;10.39;52.93
80401;BME280;69727;53.132;8.230;2023-04-28T08:39:19;101328.63;;;10.41;52.71
80401;BME280;69727;53.132;8.230;2023-04-28T08:41:47;101337.31;;;10.53;52.27
80401;BME280;69727;53.132;8.230;2023-04-28T08:44:12;101341.66;;;10.58;52.17
80401;BME280;69727;53.132;8.230;2023-04-28T08:46:42;101322.41;;;10.45;52.17
80401;BME280;69727;53.132;8.230;2023-04-28T08:49:13;101332.06;;;10.50;52.98
80401;BME280;69727;53.132;8.230;2023-04-28T08:51:45;101313.59;;;10.45;52.04
80401;BME280;69727;53.132;8.230;2023-04-28T08:54:14;101332.13;;;10.43;52.45
80401;BME280;69727;53.132;8.230;2023-04-28T08:56:41;101337.34;;;10.50;52.97
80401;BME280;69727;53.132;8.230;2023-04-28T08:59:10;101316.31;;;10.37;53.64
80401;BME280;69727;53.132;8.230;2023-04-28T09:01:36;101328.50;;;10.52;52.65
80401;BME280;69727;53.132;8.230;2023-04-28T09:04:02;101327.56;;;10.55;52.88
80401;BME280;69727;53.132;8.230;2023-04-28T09:06:34;101312.56;;;10.58;53.39
80401;BME280;69727;53.132;8.230;2023-04-28T09:11:58;101334.13;;;11.00;52.70
80401;BME280;69727;53.132;8.230;2023-04-28T09:14:28;101329.66;;;11.04;51.91
80401;BME280;69727;53.132;8.230;2023-04-28T09:16:54;101329.66;;;11.04;52.60
80401;BME280;69727;53.132;8.230;2023-04-28T09:19:21;101322.56;;;11.06;51.96
80401;BME280;69727;53.132;8.230;2023-04-28T09:21:52;101321.53;;;11.16;52.68
80401;BME280;69727;53.132;8.230;2023-04-28T09:24:28;101303.72;;;11.28;52.50
80401;BME280;69727;53.132;8.230;2023-04-28T09:26:54;101316.63;;;11.51;52.21
80401;BME280;69727;53.132;8.230;2023-04-28T09:29:20;101307.63;;;11.61;51.25
80401;BME280;69727;53.132;8.230;2023-04-28T09:31:46;101310.00;;;11.78;50.77
80401;BME280;69727;53.132;8.230;2023-04-28T09:34:12;101289.72;;;11.79;51.16
80401;BME280;69727;53.132;8.230;2023-04-28T09:36:37;101296.50;;;11.97;50.26
80401;BME280;69727;53.132;8.230;2023-04-28T09:39:03;101289.25;;;12.05;51.63
80401;BME280;69727;53.132;8.230;2023-04-28T09:44:18;101282.78;;;12.21;50.57
80401;BME280;69727;53.132;8.230;2023-04-28T09:46:46;101276.41;;;12.32;50.60
80401;BME280;69727;53.132;8.230;2023-04-28T09:49:12;101285.06;;;12.41;50.28
80401;BME280;69727;53.132;8.230;2023-04-28T09:51:38;101283.41;;;12.36;51.12
80401;BME280;69727;53.132;8.230;2023-04-28T09:54:05;101292.03;;;12.46;50.39
80401;BME280;69727;53.132;8.230;2023-04-28T09:56:32;101269.44;;;12.26;50.53
80401;BME280;69727;53.132;8.230;2023-04-28T09:59:00;101279.13;;;12.27;51.26
80401;BME280;69727;53.132;8.230;2023-04-28T10:01:39;101263.38;;;12.19;50.92
80401;BME280;69727;53.132;8.230;2023-04-28T10:04:06;101259.03;;;12.15;51.69
80401;BME280;69727;53.132;8.230;2023-04-28T10:06:34;101263.59;;;12.08;51.23
80401;BME280;69727;53.132;8.230;2023-04-28T10:09:02;101262.72;;;12.06;52.15
80401;BME280;69727;53.132;8.230;2023-04-28T10:11:29;101251.34;;;12.01;52.67
80401;BME280;69727;53.132;8.230;2023-04-28T10:13:55;101241.56;;;12.03;53.14
80401;BME280;69727;53.132;8.230;2023-04-28T10:16:21;101256.38;;;12.17;52.86
80401;BME280;69727;53.132;8.230;2023-04-28T10:18:46;101246.72;;;12.13;52.99
80401;BME280;69727;53.132;8.230;2023-04-28T10:21:17;101242.28;;;12.15;52.42
80401;BME280;69727;53.132;8.230;2023-04-28T10:29:22;101242.72;;;11.88;54.22
80401;BME280;69727;53.132;8.230;2023-04-28T10:32:24;101251.00;;;11.68;54.85
80401;BME280;69727;53.132;8.230;2023-04-28T10:34:50;101250.28;;;11.60;56.05
80401;BME280;69727;53.132;8.230;2023-04-28T10:37:16;101249.44;;;11.57;55.99
80401;BME280;69727;53.132;8.230;2023-04-28T10:42:54;101237.16;;;11.52;56.18
80401;BME280;69727;53.132;8.230;2023-04-28T10:56:12;101234.03;;;11.80;56.77
80401;BME280;69727;53.132;8.230;2023-04-28T10:58:39;101223.56;;;11.72;56.31
80401;BME280;69727;53.132;8.230;2023-04-28T11:01:29;101227.88;;;11.77;56.44
80401;BME280;69727;53.132;8.230;2023-04-28T11:03:57;101229.53;;;11.84;57.18
80401;BME280;69727;53.132;8.230;2023-04-28T11:07:07;101218.09;;;11.83;56.74
80401;BME280;69727;53.132;8.230;2023-04-28T11:16:53;101205.50;;;11.96;55.93
80401;BME280;69727;53.132;8.230;2023-04-28T11:19:21;101206.50;;;11.87;56.64
80401;BME280;69727;53.132;8.230;2023-04-28T11:21:48;101177.53;;;11.78;57.03
80401;BME280;69727;53.132;8.230;2023-04-28T11:24:14;101193.31;;;11.84;56.46
80401;BME280;69727;53.132;8.230;2023-04-28T11:26:40;101189.66;;;11.93;56.66
80401;BME280;69727;53.132;8.230;2023-04-28T11:29:06;101191.28;;;12.00;56.19
80401;BME280;69727;53.132;8.230;2023-04-28T11:31:32;101179.06;;;11.93;56.54
80401;BME280;69727;53.132;8.230;2023-04-28T11:34:09;101187.63;;;12.06;56.89
80401;BME280;69727;53.132;8.230;2023-04-28T11:36:41;101189.19;;;12.18;55.72
80401;BME280;69727;53.132;8.230;2023-04-28T11:39:12;101170.66;;;12.16;56.68
80401;BME280;69727;53.132;8.230;2023-04-28T11:41:41;101177.50;;;12.26;56.50
80401;BME280;69727;53.132;8.230;2023-04-28T11:44:17;101170.19;;;12.38;56.52
80401;BME280;69727;53.132;8.230;2023-04-28T11:47:03;101174.22;;;12.56;56.43
80401;BME280;69727;53.132;8.230;2023-04-28T11:49:50;101165.13;;;12.68;57.02
80401;BME280;69727;53.132;8.230;2023-04-28T11:52:15;101163.19;;;12.76;55.51
80401;BME280;69727;53.132;8.230;2023-04-28T11:54:41;101165.38;;;12.94;56.48
80401;BME280;69727;53.132;8.230;2023-04-28T11:57:19;101164.09;;;13.12;55.36
80401;BME280;69727;53.132;8.230;2023-04-28T11:59:45;101169.09;;;13.25;54.72
80401;BME280;69727;53.132;8.230;2023-04-28T12:02:10;101175.81;;;13.40;54.03
80401;BME280;69727;53.132;8.230;2023-04-28T12:04:37;101174.97;;;13.39;53.45
80401;BME280;69727;53.132;8.230;2023-04-28T12:07:14;101167.03;;;13.38;53.86
80401;BME280;69727;53.132;8.230;2023-04-28T12:09:41;101155.69;;;13.29;53.62
80401;BME280;69727;53.132;8.230;2023-04-28T12:12:08;101151.25;;;13.30;54.09
80401;BME280;69727;53.132;8.230;2023-04-28T12:17:38;101158.91;;;13.44;53.96
80401;BME280;69727;53.132;8.230;2023-04-28T12:20:06;101147.34;;;13.46;53.55
80401;BME280;69727;53.132;8.230;2023-04-28T12:22:45;101154.41;;;13.46;53.35
80401;BME280;69727;53.132;8.230;2023-04-28T12:25:13;101141.34;;;13.38;53.62
80401;BME280;69727;53.132;8.230;2023-04-28T12:27:56;101152.97;;;13.34;54.17
80401;BME280;69727;53.132;8.230;2023-04-28T12:32:47;101123.22;;;13.18;54.34
80401;BME280;69727;53.132;8.230;2023-04-28T12:35:13;101141.44;;;13.32;54.70
80401;BME280;69727;53.132;8.230;2023-04-28T12:37:39;101144.00;;;13.38;54.35
80401;BME280;69727;53.132;8.230;2023-04-28T12:40:06;101135.16;;;13.38;54.72
80401;BME280;69727;53.132;8.230;2023-04-28T12:42:31;101134.75;;;13.53;53.83
80401;BME280;69727;53.132;8.230;2023-04-28T12:44:57;101126.63;;;13.59;54.42
80401;BME280;69727;53.132;8.230;2023-04-28T12:47:23;101110.44;;;13.68;54.09
80401;BME280;69727;53.132;8.230;2023-04-28T12:49:48;101140.84;;;13.90;53.99
80401;BME280;69727;53.132;8.230;2023-04-28T12:52:17;101131.75;;;13.98;54.03
80401;BME280;69727;53.132;8.230;2023-04-28T12:54:42;101116.56;;;14.02;53.14
80401;BME280;69727;53.132;8.230;2023-04-28T12:57:11;101124.41;;;14.06;53.31
80401;BME280;69727;53.132;8.230;2023-04-28T12:59:38;101107.81;;;13.98;53.44
80401;BME280;69727;53.132;8.230;2023-04-28T13:02:04;101109.38;;;14.05;53.55
80401;BME280;69727;53.132;8.230;2023-04-28T13:04:29;101123.00;;;14.24;53.65
80401;BME280;69727;53.132;8.230;2023-04-28T13:06:56;101111.56;;;14.21;53.37
80401;BME280;69727;53.132;8.230;2023-04-28T13:09:24;101101.28;;;14.09;53.94
80401;BME280;69727;53.132;8.230;2023-04-28T13:11:50;101093.44;;;14.04;54.21
80401;BME280;69727;53.132;8.230;2023-04-28T13:14:18;101116.56;;;14.02;54.34
80401;BME280;69727;53.132;8.230;2023-04-28T13:16:44;101093.75;;;13.93;54.17
80401;BME280;69727;53.132;8.230;2023-04-28T13:19:09;101107.94;;;13.94;54.98
80401;BME280;69727;53.132;8.230;2023-04-28T13:21:38;101118.41;;;14.00;55.30
80401;BME280;69727;53.132;8.230;2023-04-28T13:24:06;101113.56;;;14.14;54.39
80401;BME280;69727;53.132;8.230;2023-04-28T13:26:32;101102.97;;;14.13;54.35
80401;BME280;69727;53.132;8.230;2023-04-28T13:28:57;101089.72;;;14.11;54.55
80401;BME280;69727;53.132;8.230;2023-04-28T13:31:22;101099.22;;;14.18;54.00
80401;BME280;69727;53.132;8.230;2023-04-28T13:33:48;101096.63;;;14.17;54.25